Mohnton, Pennsylvania
Current Conditions -  °F | °C
As of 8:54 PM on Tuesday 21 Oct 2014 (Local Time) from KRDG Reporting Station
Broken Clouds Broken Clouds  
Wind Chill: 55°   Ceiling: 8500
Heat Index: 55°   Visibility: 10mi
Dew Point: 48°   Wind: 3mph
Humidity: 77%   Direction: 20°NNE
Pressure: 29.88"   Gusts: NA
Location:  40.29°N, 75.98°W
Report Text: KRDG 220054Z AUTO 02003KT 10SM BKN085 13/09 A2988 RMK AO2 SLP122 T01280089
Loading
Personal Weather Stations






























Interactive Weather Map
Tropical Storm Tracking
New forecast layout! Learn more

10-Day Weather Forecast

Advertisements
Track Severe Weather on mobile